createdAt,value
2023-03-26T00:01:58.384Z,8.07
2023-03-26T00:05:00.633Z,7.88
2023-03-26T00:08:02.878Z,7.77
2023-03-26T00:11:06.691Z,7.78
2023-03-26T00:14:13.835Z,7.81
2023-03-26T00:17:16.663Z,7.87
2023-03-26T00:20:18.975Z,7.81
2023-03-26T00:23:21.269Z,7.83
2023-03-26T00:26:24.097Z,7.81
2023-03-26T00:29:28.081Z,7.80
2023-03-26T00:32:30.923Z,7.84
2023-03-26T00:35:36.750Z,7.67
2023-03-26T00:38:39.509Z,7.85
2023-03-26T00:41:43.417Z,7.85
2023-03-26T00:44:46.142Z,7.84
2023-03-26T00:47:48.382Z,7.85
2023-03-26T00:50:50.880Z,7.80
2023-03-26T00:53:53.201Z,7.78
2023-03-26T00:56:56.028Z,7.74
2023-03-26T00:59:58.275Z,7.49
2023-03-26T01:03:02.564Z,7.20
2023-03-26T01:06:08.619Z,7.23
2023-03-26T01:09:18.815Z,6.98
2023-03-26T01:12:25.690Z,6.81
2023-03-26T01:15:30.069Z,6.78
2023-03-26T01:18:41.091Z,6.77
2023-03-26T01:21:44.151Z,6.77
2023-03-26T01:24:52.993Z,6.71
2023-03-26T01:27:56.696Z,6.65
2023-03-26T01:31:13.099Z,6.72
2023-03-26T01:34:30.746Z,6.65
2023-03-26T01:38:10.543Z,6.63
2023-03-26T01:41:39.007Z,6.53
2023-03-26T01:44:50.609Z,6.45
2023-03-26T01:47:53.276Z,6.43
2023-03-26T01:50:58.710Z,6.37
2023-03-26T01:54:08.808Z,6.26
2023-03-26T01:57:33.207Z,6.10
2023-03-26T02:01:12.756Z,6.00
2023-03-26T02:04:26.386Z,5.93
2023-03-26T02:07:47.943Z,5.88
2023-03-26T02:10:57.791Z,5.85
2023-03-26T02:14:00.580Z,5.71
2023-03-26T02:17:02.854Z,5.58
2023-03-26T02:20:06.078Z,5.40
2023-03-26T02:23:09.894Z,5.40
2023-03-26T02:26:14.589Z,5.26
2023-03-26T02:29:29.758Z,5.48
2023-03-26T02:32:32.872Z,5.40
2023-03-26T02:35:35.350Z,5.26
2023-03-26T02:38:38.575Z,5.24
2023-03-26T02:41:41.102Z,5.24
2023-03-26T02:44:46.238Z,5.31
2023-03-26T02:47:54.242Z,5.23
2023-03-26T02:50:59.468Z,5.17
2023-03-26T02:54:20.484Z,5.13
2023-03-26T02:57:41.649Z,5.00
2023-03-26T03:00:55.114Z,4.90
2023-03-26T03:04:05.439Z,4.89
2023-03-26T03:07:14.445Z,4.86
2023-03-26T03:10:21.970Z,4.79
2023-03-26T03:13:41.226Z,4.84
2023-03-26T03:16:43.745Z,4.90
2023-03-26T03:19:47.032Z,4.87
2023-03-26T03:22:49.587Z,4.86
2023-03-26T03:25:52.695Z,4.81
2023-03-26T03:28:57.535Z,4.80
2023-03-26T03:32:00.252Z,4.77
2023-03-26T03:35:12.978Z,4.70
2023-03-26T03:38:19.224Z,4.62
2023-03-26T03:41:24.609Z,4.65
2023-03-26T03:44:27.187Z,4.63
2023-03-26T03:47:29.769Z,4.60
2023-03-26T03:50:35.040Z,4.65
2023-03-26T03:53:55.969Z,4.58
2023-03-26T03:57:11.448Z,4.52
2023-03-26T04:00:24.529Z,4.55
2023-03-26T04:03:46.954Z,4.49
2023-03-26T04:06:52.252Z,4.39
2023-03-26T04:09:56.151Z,4.42
2023-03-26T04:12:59.979Z,4.31
2023-03-26T04:16:33.116Z,4.38
2023-03-26T04:19:36.062Z,4.41
2023-03-26T04:22:39.572Z,4.36
2023-03-26T04:25:54.623Z,4.38
2023-03-26T04:29:12.890Z,4.38
2023-03-26T04:32:34.289Z,4.35
2023-03-26T04:35:37.586Z,4.28
2023-03-26T04:38:49.439Z,4.35
2023-03-26T04:41:54.228Z,4.35
2023-03-26T04:45:03.205Z,4.36
2023-03-26T04:48:07.381Z,4.42
2023-03-26T04:51:17.953Z,4.44
2023-03-26T04:54:22.422Z,4.42
2023-03-26T04:57:43.752Z,4.45
2023-03-26T05:00:54.101Z,4.45
2023-03-26T05:03:58.703Z,4.48
2023-03-26T05:07:03.086Z,4.50
2023-03-26T05:10:17.106Z,4.63
2023-03-26T05:13:25.208Z,4.72
2023-03-26T05:16:31.857Z,4.76
2023-03-26T05:19:41.813Z,4.86
2023-03-26T05:22:44.538Z,4.99
2023-03-26T05:25:55.485Z,5.14
2023-03-26T05:29:00.373Z,5.24
2023-03-26T05:32:09.610Z,5.35
2023-03-26T05:35:12.692Z,5.44
2023-03-26T05:38:15.506Z,5.51
2023-03-26T05:41:18.474Z,5.71
2023-03-26T05:44:24.083Z,5.80
2023-03-26T05:47:27.375Z,6.06
2023-03-26T05:50:29.779Z,6.24
2023-03-26T05:53:35.358Z,6.50
2023-03-26T05:56:57.323Z,6.77
2023-03-26T06:00:18.553Z,7.03
2023-03-26T06:03:23.190Z,7.23
2023-03-26T06:06:46.941Z,7.53
2023-03-26T06:09:49.290Z,7.81
2023-03-26T06:12:51.593Z,7.98
2023-03-26T06:15:54.889Z,8.35
2023-03-26T06:19:11.907Z,8.81
2023-03-26T06:22:32.299Z,9.00
2023-03-26T06:25:53.022Z,9.10
2023-03-26T06:29:14.946Z,9.31
2023-03-26T06:32:36.318Z,9.67
2023-03-26T06:35:45.381Z,10.03
2023-03-26T06:38:48.891Z,10.39
2023-03-26T06:41:51.252Z,10.80
2023-03-26T06:45:12.026Z,11.05
2023-03-26T06:48:52.367Z,11.26
2023-03-26T06:52:13.130Z,11.65
2023-03-26T06:55:18.069Z,12.01
2023-03-26T06:58:36.156Z,11.79
2023-03-26T07:02:04.584Z,12.04
2023-03-26T07:05:25.572Z,12.81
2023-03-26T07:08:46.904Z,13.14
2023-03-26T07:12:04.258Z,13.40
2023-03-26T07:15:35.829Z,13.86
2023-03-26T07:18:55.357Z,13.71
2023-03-26T07:22:01.636Z,14.02
2023-03-26T07:25:30.449Z,13.97
2023-03-26T07:29:04.969Z,14.33
2023-03-26T07:32:47.538Z,14.81
2023-03-26T07:36:20.814Z,14.81
2023-03-26T07:40:02.797Z,15.07
2023-03-26T07:43:34.677Z,15.49
2023-03-26T07:46:37.426Z,15.96
2023-03-26T07:49:57.894Z,16.12
2023-03-26T07:53:21.337Z,16.20
2023-03-26T07:56:35.134Z,15.97
2023-03-26T07:59:58.545Z,16.43
2023-03-26T08:03:42.348Z,15.73
2023-03-26T08:07:24.876Z,15.32
2023-03-26T08:10:54.873Z,15.03
2023-03-26T08:14:06.877Z,15.01
2023-03-26T08:17:16.415Z,15.45
2023-03-26T08:20:31.194Z,15.78
2023-03-26T08:23:50.537Z,16.23
2023-03-26T08:26:58.965Z,16.29
2023-03-26T08:30:12.496Z,15.58
2023-03-26T08:33:18.251Z,15.69
2023-03-26T08:36:20.555Z,15.47
2023-03-26T08:39:22.825Z,15.38
2023-03-26T08:42:30.677Z,15.48
2023-03-26T08:45:54.513Z,15.51
2023-03-26T08:49:15.945Z,15.79
2023-03-26T08:52:30.026Z,16.05
2023-03-26T08:55:40.628Z,16.77
2023-03-26T08:59:14.328Z,17.23
2023-03-26T09:02:59.237Z,18.14
2023-03-26T09:06:20.294Z,18.82
2023-03-26T09:09:47.055Z,19.86
2023-03-26T09:13:26.050Z,19.02
2023-03-26T09:16:38.092Z,19.47
2023-03-26T09:20:33.683Z,19.38
2023-03-26T09:24:09.351Z,18.89
2023-03-26T09:27:20.596Z,18.93
2023-03-26T09:31:08.958Z,18.85
2023-03-26T09:34:30.251Z,19.41
2023-03-26T09:37:58.820Z,19.34
2023-03-26T09:41:09.346Z,19.47
2023-03-26T09:44:43.808Z,19.63
2023-03-26T09:48:11.401Z,18.79
2023-03-26T09:51:43.609Z,18.24
2023-03-26T09:55:26.102Z,18.32
2023-03-26T09:58:34.278Z,18.56
2023-03-26T10:01:44.393Z,18.44
2023-03-26T10:05:06.983Z,18.22
2023-03-26T10:08:47.598Z,18.21
2023-03-26T10:12:26.856Z,18.63
2023-03-26T10:15:47.488Z,19.19
2023-03-26T10:19:24.485Z,19.31
2023-03-26T10:22:29.606Z,19.47
2023-03-26T10:25:39.134Z,19.55
2023-03-26T10:28:53.338Z,20.01
2023-03-26T10:32:14.367Z,20.88
2023-03-26T10:35:43.648Z,20.91
2023-03-26T10:39:07.111Z,21.25
2023-03-26T10:42:41.706Z,22.91
2023-03-26T10:46:10.295Z,22.83
2023-03-26T10:49:12.554Z,22.97
2023-03-26T10:52:17.574Z,22.47
2023-03-26T10:55:26.373Z,23.09
2023-03-26T10:58:29.705Z,23.45
2023-03-26T11:01:57.429Z,22.95
2023-03-26T11:05:08.776Z,23.20
2023-03-26T11:08:20.867Z,23.66
2023-03-26T11:11:42.037Z,22.50
2023-03-26T11:15:07.330Z,23.23
2023-03-26T11:18:15.503Z,21.11
2023-03-26T11:21:20.808Z,23.29
2023-03-26T11:24:38.223Z,23.30
2023-03-26T11:27:49.427Z,21.27
2023-03-26T11:31:08.549Z,21.31
2023-03-26T11:34:47.319Z,22.54
2023-03-26T11:37:55.039Z,23.43
2023-03-26T11:40:59.884Z,23.97
2023-03-26T11:44:26.094Z,23.09
2023-03-26T11:47:48.564Z,22.85
2023-03-26T11:50:57.666Z,22.87
2023-03-26T11:54:01.707Z,23.46
2023-03-26T11:57:08.627Z,24.07
2023-03-26T12:00:18.294Z,24.20
2023-03-26T12:03:20.955Z,24.61
2023-03-26T12:06:27.585Z,22.75
2023-03-26T12:09:29.890Z,21.03
2023-03-26T12:12:42.433Z,22.81
2023-03-26T12:15:44.708Z,21.83
2023-03-26T12:18:58.743Z,21.93
2023-03-26T12:22:01.154Z,20.95
2023-03-26T12:25:06.357Z,20.53
2023-03-26T12:28:16.234Z,19.94
2023-03-26T12:31:19.489Z,19.46
2023-03-26T12:34:29.487Z,18.81
2023-03-26T12:37:37.072Z,18.20
2023-03-26T12:40:42.401Z,17.98
2023-03-26T12:44:55.725Z,18.04
2023-03-26T12:47:57.825Z,17.96
2023-03-26T12:51:19.574Z,18.12
2023-03-26T12:54:54.056Z,18.38
2023-03-26T12:58:15.478Z,18.77
2023-03-26T13:01:38.752Z,21.27
2023-03-26T13:05:05.657Z,24.28
2023-03-26T13:08:32.789Z,23.81
2023-03-26T13:11:43.916Z,23.80
2023-03-26T13:14:57.944Z,21.18
2023-03-26T13:18:17.030Z,19.67
2023-03-26T13:21:49.397Z,19.63
2023-03-26T13:25:11.018Z,19.91
2023-03-26T13:29:01.230Z,21.38
2023-03-26T13:32:22.165Z,22.50
2023-03-26T13:35:30.808Z,21.30
2023-03-26T13:38:35.948Z,22.81
2023-03-26T13:42:15.417Z,22.17
2023-03-26T13:45:57.538Z,21.08
2023-03-26T13:49:05.046Z,21.07
2023-03-26T13:52:12.411Z,21.17
2023-03-26T13:55:46.189Z,21.52
2023-03-26T13:58:58.610Z,21.89
2023-03-26T14:02:10.877Z,22.07
2023-03-26T14:05:35.445Z,22.56
2023-03-26T14:08:44.756Z,21.97
2023-03-26T14:12:21.049Z,21.61
2023-03-26T14:15:34.556Z,21.00
2023-03-26T14:19:18.101Z,22.33
2023-03-26T14:23:03.751Z,21.45
2023-03-26T14:26:06.063Z,22.32
2023-03-26T14:29:23.845Z,21.08
2023-03-26T14:33:10.797Z,21.00
2023-03-26T14:36:13.594Z,20.22
2023-03-26T14:39:30.665Z,20.60
2023-03-26T14:42:53.400Z,20.11
2023-03-26T14:46:14.661Z,19.84
2023-03-26T14:49:32.991Z,20.04
2023-03-26T14:53:00.894Z,19.61
2023-03-26T14:56:22.094Z,19.77
2023-03-26T14:59:42.229Z,19.38
2023-03-26T15:03:09.179Z,19.84
2023-03-26T15:06:21.144Z,21.27
2023-03-26T15:09:57.170Z,22.58
2023-03-26T15:13:41.050Z,23.09
2023-03-26T15:17:14.294Z,22.98
2023-03-26T15:20:39.421Z,22.63
2023-03-26T15:24:09.252Z,23.04
2023-03-26T15:27:29.775Z,22.09
2023-03-26T15:30:56.830Z,21.07
2023-03-26T15:34:30.505Z,20.11
2023-03-26T15:37:46.902Z,19.31
2023-03-26T15:40:59.005Z,18.83
2023-03-26T15:44:23.272Z,18.40
2023-03-26T15:47:35.855Z,18.11
2023-03-26T15:50:58.809Z,18.14
2023-03-26T15:54:39.542Z,17.74
2023-03-26T15:57:52.550Z,17.57
2023-03-26T16:01:21.131Z,17.49
2023-03-26T16:04:35.291Z,17.49
2023-03-26T16:08:28.057Z,17.32
2023-03-26T16:11:58.757Z,17.05
2023-03-26T16:15:11.688Z,17.08
2023-03-26T16:18:19.242Z,17.02
2023-03-26T16:21:32.817Z,16.91
2023-03-26T16:24:42.434Z,16.81
2023-03-26T16:27:45.344Z,16.78
2023-03-26T16:31:10.793Z,16.68
2023-03-26T16:34:38.807Z,16.53
2023-03-26T16:37:50.063Z,16.38
2023-03-26T16:41:06.091Z,16.27
2023-03-26T16:44:26.867Z,16.24
2023-03-26T16:47:44.705Z,16.13
2023-03-26T16:51:09.121Z,15.96
2023-03-26T16:54:36.186Z,15.88
2023-03-26T16:58:42.236Z,15.85
2023-03-26T17:02:04.750Z,15.79
2023-03-26T17:05:44.494Z,15.70
2023-03-26T17:09:00.414Z,15.66
2023-03-26T17:12:14.294Z,15.75
2023-03-26T17:15:42.286Z,15.57
2023-03-26T17:19:01.021Z,15.48
2023-03-26T17:22:19.349Z,15.45
2023-03-26T17:25:42.622Z,15.39
2023-03-26T17:29:10.950Z,15.37
2023-03-26T17:32:15.189Z,15.17
2023-03-26T17:35:46.154Z,15.16
2023-03-26T17:38:48.473Z,15.16
2023-03-26T17:41:55.639Z,15.17
2023-03-26T17:44:59.296Z,15.04
2023-03-26T17:48:10.730Z,15.03
2023-03-26T17:51:21.005Z,14.97
2023-03-26T17:54:28.507Z,14.86
2023-03-26T17:57:42.679Z,14.81
2023-03-26T18:00:49.769Z,14.79
2023-03-26T18:03:56.479Z,14.79
2023-03-26T18:07:07.833Z,14.69
2023-03-26T18:10:17.920Z,14.67
2023-03-26T18:14:01.535Z,14.60
2023-03-26T18:17:03.967Z,14.59
2023-03-26T18:20:07.204Z,14.60
2023-03-26T18:23:12.377Z,14.53
2023-03-26T18:26:17.412Z,14.49
2023-03-26T18:29:24.086Z,14.42
2023-03-26T18:32:31.219Z,14.35
2023-03-26T18:35:50.834Z,14.28
2023-03-26T18:38:59.347Z,14.26
2023-03-26T18:42:01.622Z,14.21
2023-03-26T18:45:24.950Z,14.25
2023-03-26T18:48:29.010Z,14.28
2023-03-26T18:51:32.017Z,14.25
2023-03-26T18:54:36.474Z,14.24
2023-03-26T18:57:38.817Z,14.18
2023-03-26T19:00:42.734Z,14.15
2023-03-26T19:03:45.337Z,14.11
2023-03-26T19:06:47.907Z,14.06
2023-03-26T19:09:52.636Z,14.01
2023-03-26T19:13:00.919Z,14.00
2023-03-26T19:16:09.420Z,13.98
2023-03-26T19:19:18.902Z,13.94
2023-03-26T19:22:22.967Z,13.97
2023-03-26T19:25:33.104Z,13.89
2023-03-26T19:28:41.896Z,13.91
2023-03-26T19:31:44.160Z,13.89
2023-03-26T19:34:48.164Z,13.92
2023-03-26T19:37:51.854Z,13.94
2023-03-26T19:40:59.190Z,13.81
2023-03-26T19:44:06.074Z,13.86
2023-03-26T19:47:14.487Z,13.84
2023-03-26T19:50:28.463Z,13.78
2023-03-26T19:53:37.376Z,13.70
2023-03-26T19:56:39.660Z,13.60
2023-03-26T19:59:41.919Z,13.47
2023-03-26T20:02:48.777Z,13.40
2023-03-26T20:05:51.943Z,13.44
2023-03-26T20:08:54.272Z,13.37
2023-03-26T20:11:56.490Z,13.42
2023-03-26T20:14:58.776Z,13.44
2023-03-26T20:18:01.217Z,13.51
2023-03-26T20:21:10.570Z,13.61
2023-03-26T20:24:16.003Z,13.36
2023-03-26T20:27:19.260Z,13.37
2023-03-26T20:30:36.811Z,13.24
2023-03-26T20:33:39.988Z,13.27
2023-03-26T20:36:42.289Z,13.03
2023-03-26T20:39:45.673Z,12.78
2023-03-26T20:42:48.152Z,12.56
2023-03-26T20:45:50.744Z,12.49
2023-03-26T20:48:54.897Z,12.44
2023-03-26T20:51:59.637Z,12.25
2023-03-26T20:55:01.903Z,12.23
2023-03-26T20:58:04.223Z,12.10
2023-03-26T21:01:06.958Z,12.13
2023-03-26T21:04:09.227Z,12.18
2023-03-26T21:07:18.149Z,11.98
2023-03-26T21:10:21.670Z,11.72
2023-03-26T21:13:45.092Z,11.67
2023-03-26T21:16:47.681Z,11.28
2023-03-26T21:19:50.505Z,11.04
2023-03-26T21:23:30.265Z,10.87
2023-03-26T21:26:53.410Z,10.68
2023-03-26T21:29:56.238Z,10.61
2023-03-26T21:32:59.707Z,10.50
2023-03-26T21:36:02.219Z,10.43
2023-03-26T21:39:06.560Z,10.39
2023-03-26T21:42:10.554Z,10.40
2023-03-26T21:45:13.795Z,10.39
2023-03-26T21:48:16.826Z,10.37
2023-03-26T21:51:19.482Z,10.32
2023-03-26T21:54:30.820Z,10.33
2023-03-26T21:57:48.006Z,10.30
2023-03-26T22:00:53.328Z,10.21
2023-03-26T22:04:10.232Z,10.29
2023-03-26T22:07:17.618Z,10.29
2023-03-26T22:10:20.408Z,10.26
2023-03-26T22:13:22.719Z,10.29
2023-03-26T22:16:25.320Z,10.39
2023-03-26T22:19:29.143Z,10.23
2023-03-26T22:22:32.646Z,10.29
2023-03-26T22:25:35.356Z,10.26
2023-03-26T22:28:37.572Z,10.28
2023-03-26T22:31:41.416Z,10.20
2023-03-26T22:34:45.221Z,10.24
2023-03-26T22:37:47.511Z,10.39
2023-03-26T22:40:57.745Z,10.16
2023-03-26T22:44:09.466Z,10.16
2023-03-26T22:47:17.039Z,10.34
2023-03-26T22:50:19.681Z,10.34
2023-03-26T22:53:22.305Z,10.40
2023-03-26T22:56:24.485Z,10.51
2023-03-26T22:59:26.721Z,10.57
2023-03-26T23:02:28.919Z,10.47
2023-03-26T23:05:31.337Z,10.41
2023-03-26T23:08:35.092Z,10.49
2023-03-26T23:11:37.423Z,10.54
2023-03-26T23:14:39.669Z,10.53
2023-03-26T23:17:42.361Z,10.51
2023-03-26T23:20:55.495Z,10.54
2023-03-26T23:23:58.369Z,10.49
2023-03-26T23:27:00.607Z,10.49
2023-03-26T23:30:04.646Z,10.37
2023-03-26T23:33:06.890Z,10.37
2023-03-26T23:36:10.025Z,10.41
2023-03-26T23:39:12.253Z,10.32
2023-03-26T23:42:14.492Z,10.19
2023-03-26T23:45:18.773Z,10.32
2023-03-26T23:48:23.956Z,10.43
2023-03-26T23:51:26.159Z,10.14
2023-03-26T23:54:30.078Z,10.06
2023-03-26T23:57:32.285Z,10.08
